Time;durP1;ratioP1;P1;durP2;ratioP2;P2;SDS_P1;SDS_P2;PMS_P1;PMS_P2;Temp;Humidity;BMP_temperature;BMP_pressure;BME280_temperature;BME280_humidity;BME280_pressure;Samples;Min_cycle;Max_cycle;Signal;HPM_P1;HPM_P2
2023/08/26 00:01:38;;;;;;;16.38;11.70;;;;;;;;;;4942244;29;20737;-53
2023/08/26 00:04:05;;;;;;;19.92;12.27;;;;;;;;;;4950246;29;20266;-53
2023/08/26 00:06:34;;;;;;;19.95;12.60;;;;;;;;;;4961266;28;20227;-53
2023/08/26 00:09:02;;;;;;;17.55;11.70;;;;;;;;;;4961587;29;20203;-52
2023/08/26 00:11:29;;;;;;;20.38;12.20;;;;;;;;;;4961467;28;20222;-53
2023/08/26 00:13:56;;;;;;;19.95;13.25;;;;;;;;;;4946975;29;20215;-51
2023/08/26 00:16:23;;;;;;;22.60;12.82;;;;;;;;;;4942255;29;20266;-52
2023/08/26 00:18:51;;;;;;;21.92;12.90;;;;;;;;;;4942412;29;20215;-50
2023/08/26 00:21:21;;;;;;;18.63;12.77;;;;;;;;;;4944204;29;20564;-51
2023/08/26 00:23:51;;;;;;;21.23;13.05;;;;;;;;;;4961245;28;20214;-52
2023/08/26 00:26:18;;;;;;;17.73;12.68;;;;;;;;;;4961300;29;20264;-49
2023/08/26 00:28:46;;;;;;;21.13;14.00;;;;;;;;;;4961471;28;20207;-49
2023/08/26 00:31:13;;;;;;;19.48;13.45;;;;;;;;;;4961312;28;20195;-49
2023/08/26 00:33:40;;;;;;;19.33;12.77;;;;;;;;;;4960056;29;20274;-50
2023/08/26 00:36:08;;;;;;;22.80;13.02;;;;;;;;;;4992660;28;20210;-50
2023/08/26 00:38:35;;;;;;;20.38;13.50;;;;;;;;;;4960056;29;20210;-51
2023/08/26 00:41:02;;;;;;;20.25;13.00;;;;;;;;;;4960045;29;20235;-50
2023/08/26 00:43:31;;;;;;;18.85;13.32;;;;;;;;;;4975977;28;20204;-50
2023/08/26 00:45:58;;;;;;;20.25;12.45;;;;;;;;;;4957493;28;20238;-49
2023/08/26 00:48:26;;;;;;;18.23;12.07;;;;;;;;;;4956798;29;20669;-52
2023/08/26 00:50:54;;;;;;;19.98;12.55;;;;;;;;;;4956740;29;20234;-51
2023/08/26 00:53:22;;;;;;;19.02;12.48;;;;;;;;;;4956950;29;20208;-50
2023/08/26 00:55:51;;;;;;;16.48;12.07;;;;;;;;;;4956672;29;20618;-49
2023/08/26 00:58:18;;;;;;;18.55;11.93;;;;;;;;;;4941696;29;20216;-50
2023/08/26 01:00:46;;;;;;;22.58;12.57;;;;;;;;;;4938596;29;20196;-53
2023/08/26 01:03:13;;;;;;;21.60;12.93;;;;;;;;;;4921678;29;20259;-49
2023/08/26 01:05:40;;;;;;;18.40;12.88;;;;;;;;;;4937510;29;20242;-52
2023/08/26 01:08:08;;;;;;;18.63;12.13;;;;;;;;;;4937039;29;20232;-49
2023/08/26 01:10:42;;;;;;;19.48;12.85;;;;;;;;;;4936732;29;20215;-53
2023/08/26 01:13:12;;;;;;;18.40;12.43;;;;;;;;;;4935826;29;20204;-50
2023/08/26 01:15:44;;;;;;;18.20;12.15;;;;;;;;;;4919608;29;20271;-52
2023/08/26 01:18:13;;;;;;;21.67;12.57;;;;;;;;;;4935635;29;20197;-50
2023/08/26 01:20:42;;;;;;;19.98;11.93;;;;;;;;;;4935376;29;20211;-52
2023/08/26 01:23:20;;;;;;;18.35;12.05;;;;;;;;;;4936335;29;20685;-50
2023/08/26 01:25:48;;;;;;;18.17;12.10;;;;;;;;;;4936744;29;20631;-50
2023/08/26 01:28:15;;;;;;;19.33;13.18;;;;;;;;;;4938044;29;20232;-52
2023/08/26 01:30:43;;;;;;;16.75;12.43;;;;;;;;;;4938391;29;20300;-51
2023/08/26 01:33:17;;;;;;;21.15;12.98;;;;;;;;;;4937369;29;20208;-53
2023/08/26 01:35:46;;;;;;;16.15;11.73;;;;;;;;;;4969181;28;20218;-51
2023/08/26 01:38:16;;;;;;;21.77;12.32;;;;;;;;;;4937242;29;20212;-51
2023/08/26 01:40:53;;;;;;;20.98;12.40;;;;;;;;;;4938050;29;20701;-49
2023/08/26 01:43:20;;;;;;;17.95;12.27;;;;;;;;;;4938222;29;20232;-50
2023/08/26 01:45:47;;;;;;;16.30;11.63;;;;;;;;;;4920960;29;20211;-51
2023/08/26 01:48:15;;;;;;;18.48;12.35;;;;;;;;;;4920901;29;20239;-49
2023/08/26 01:50:42;;;;;;;19.63;14.13;;;;;;;;;;4937762;29;20208;-50
2023/08/26 01:53:09;;;;;;;20.00;13.18;;;;;;;;;;4936527;29;20215;-50
2023/08/26 01:55:36;;;;;;;21.23;13.07;;;;;;;;;;4936294;29;20211;-49
2023/08/26 01:58:04;;;;;;;16.83;12.10;;;;;;;;;;4936300;29;20211;-49
2023/08/26 02:00:31;;;;;;;22.67;13.70;;;;;;;;;;4936786;29;20208;-50
2023/08/26 02:02:59;;;;;;;22.65;13.32;;;;;;;;;;4936429;29;20621;-49
2023/08/26 02:05:27;;;;;;;19.10;12.32;;;;;;;;;;4936204;29;20666;-49
2023/08/26 02:07:54;;;;;;;26.33;12.85;;;;;;;;;;4936382;29;20235;-51
2023/08/26 02:10:22;;;;;;;22.00;13.07;;;;;;;;;;4937508;29;20215;-50
2023/08/26 02:12:51;;;;;;;18.83;12.10;;;;;;;;;;4936384;29;20204;-49
2023/08/26 02:15:18;;;;;;;26.58;13.68;;;;;;;;;;4937282;29;20653;-50
2023/08/26 02:17:45;;;;;;;20.75;13.48;;;;;;;;;;4952068;29;20226;-50
2023/08/26 02:20:12;;;;;;;23.73;13.43;;;;;;;;;;4951985;29;20219;-52
2023/08/26 02:22:40;;;;;;;19.75;12.82;;;;;;;;;;4952112;29;20224;-50
2023/08/26 02:25:07;;;;;;;20.77;13.63;;;;;;;;;;4935784;29;20236;-54
2023/08/26 02:27:35;;;;;;;21.60;13.50;;;;;;;;;;4951884;29;20236;-50
2023/08/26 02:30:03;;;;;;;21.30;14.23;;;;;;;;;;4968961;28;20214;-50
2023/08/26 02:32:30;;;;;;;22.98;13.95;;;;;;;;;;4951637;29;20199;-52
2023/08/26 02:34:58;;;;;;;22.08;13.30;;;;;;;;;;4956050;28;20664;-51
2023/08/26 02:37:25;;;;;;;18.77;13.88;;;;;;;;;;4956322;29;20212;-51
2023/08/26 02:39:53;;;;;;;22.52;13.73;;;;;;;;;;4954878;28;20239;-52
2023/08/26 02:42:21;;;;;;;23.10;14.02;;;;;;;;;;4954849;28;20664;-49
2023/08/26 02:44:48;;;;;;;20.85;14.35;;;;;;;;;;4971046;28;20302;-49
2023/08/26 02:47:15;;;;;;;20.15;13.65;;;;;;;;;;4954570;28;20247;-49
2023/08/26 02:49:42;;;;;;;25.67;14.60;;;;;;;;;;4954972;29;20229;-51
2023/08/26 02:52:10;;;;;;;26.10;15.55;;;;;;;;;;4955092;29;20207;-50
2023/08/26 02:54:37;;;;;;;20.60;14.65;;;;;;;;;;4986799;28;20206;-49
2023/08/26 02:57:04;;;;;;;25.33;14.95;;;;;;;;;;4956018;28;20214;-51
2023/08/26 02:59:31;;;;;;;25.15;15.23;;;;;;;;;;4986573;28;20230;-49
2023/08/26 03:02:06;;;;;;;21.90;14.45;;;;;;;;;;4981292;28;20207;-49
2023/08/26 03:04:33;;;;;;;24.25;15.15;;;;;;;;;;4946494;29;20603;-49
2023/08/26 03:07:01;;;;;;;20.88;15.55;;;;;;;;;;4953889;28;20246;-51
2023/08/26 03:09:29;;;;;;;25.50;16.23;;;;;;;;;;4954080;28;20207;-52
2023/08/26 03:11:58;;;;;;;21.85;16.33;;;;;;;;;;4955310;28;20199;-49
2023/08/26 03:14:25;;;;;;;28.67;15.40;;;;;;;;;;4954077;29;20214;-51
2023/08/26 03:16:52;;;;;;;25.80;16.10;;;;;;;;;;4955436;28;20550;-50
2023/08/26 03:19:19;;;;;;;27.08;15.82;;;;;;;;;;4970204;28;20565;-49
2023/08/26 03:21:46;;;;;;;22.30;14.98;;;;;;;;;;4954017;29;20215;-50
2023/08/26 03:24:16;;;;;;;26.80;16.35;;;;;;;;;;4954078;29;20199;-50
2023/08/26 03:26:47;;;;;;;21.88;15.70;;;;;;;;;;4953847;28;20217;-49
2023/08/26 03:29:14;;;;;;;28.42;15.68;;;;;;;;;;4954159;29;20207;-49
2023/08/26 03:31:43;;;;;;;21.40;15.95;;;;;;;;;;4953881;29;20207;-50
2023/08/26 03:34:13;;;;;;;31.55;16.30;;;;;;;;;;4954267;29;20195;-49
2023/08/26 03:36:40;;;;;;;25.52;15.15;;;;;;;;;;4953784;29;20207;-49
2023/08/26 03:39:08;;;;;;;22.83;15.30;;;;;;;;;;4953618;29;20204;-49
2023/08/26 03:41:36;;;;;;;26.88;15.98;;;;;;;;;;4954970;28;20215;-53
2023/08/26 03:44:04;;;;;;;22.85;15.32;;;;;;;;;;4986223;28;20210;-51
2023/08/26 03:46:32;;;;;;;22.10;15.45;;;;;;;;;;4951189;29;20200;-55
2023/08/26 03:48:59;;;;;;;20.65;14.60;;;;;;;;;;4968229;28;20231;-50
2023/08/26 03:51:28;;;;;;;22.85;15.32;;;;;;;;;;4953743;29;20633;-50
2023/08/26 03:53:55;;;;;;;23.10;15.57;;;;;;;;;;4986179;28;20209;-50
2023/08/26 03:56:22;;;;;;;23.48;15.00;;;;;;;;;;4937954;29;20215;-49
2023/08/26 03:58:52;;;;;;;23.58;15.13;;;;;;;;;;4935847;29;20203;-49
2023/08/26 04:01:20;;;;;;;26.20;15.38;;;;;;;;;;4935801;29;20212;-49
2023/08/26 04:03:50;;;;;;;22.38;15.30;;;;;;;;;;4935734;29;20208;-49
2023/08/26 04:06:18;;;;;;;24.27;14.23;;;;;;;;;;4935853;29;20676;-49
2023/08/26 04:08:45;;;;;;;20.15;14.25;;;;;;;;;;4934819;29;20283;-49
2023/08/26 04:11:15;;;;;;;21.10;14.43;;;;;;;;;;4934950;29;20208;-49
2023/08/26 04:13:42;;;;;;;22.15;14.13;;;;;;;;;;4934567;29;20207;-49
2023/08/26 04:16:09;;;;;;;21.75;14.50;;;;;;;;;;4953237;29;20215;-50
2023/08/26 04:18:37;;;;;;;22.83;14.27;;;;;;;;;;4953791;28;20219;-51
2023/08/26 04:21:04;;;;;;;20.25;14.48;;;;;;;;;;4957709;28;20547;-51
2023/08/26 04:23:31;;;;;;;21.77;13.85;;;;;;;;;;4958732;28;20227;-49
2023/08/26 04:26:05;;;;;;;20.73;14.45;;;;;;;;;;4958714;28;20208;-49
2023/08/26 04:28:32;;;;;;;20.27;14.57;;;;;;;;;;4957203;29;20772;-49
2023/08/26 04:31:00;;;;;;;21.58;13.93;;;;;;;;;;4958390;28;20207;-49
2023/08/26 04:33:27;;;;;;;24.55;14.02;;;;;;;;;;4957286;29;20294;-49
2023/08/26 04:35:54;;;;;;;23.92;14.57;;;;;;;;;;4958009;29;20669;-52
2023/08/26 04:38:21;;;;;;;18.67;13.48;;;;;;;;;;4957330;29;20214;-51
2023/08/26 04:40:48;;;;;;;29.10;16.25;;;;;;;;;;4957029;29;20286;-49
2023/08/26 04:43:16;;;;;;;26.27;14.57;;;;;;;;;;4956918;28;20211;-48
2023/08/26 04:45:44;;;;;;;27.75;14.60;;;;;;;;;;4939707;28;20219;-50
2023/08/26 04:48:11;;;;;;;25.20;14.20;;;;;;;;;;4939040;29;20240;-49
2023/08/26 04:50:41;;;;;;;20.27;14.57;;;;;;;;;;4937929;29;20228;-57
2023/08/26 04:53:08;;;;;;;25.10;14.70;;;;;;;;;;4937484;29;20204;-50
2023/08/26 04:55:36;;;;;;;24.35;15.25;;;;;;;;;;4938984;29;20245;-53
2023/08/26 04:58:03;;;;;;;23.40;14.82;;;;;;;;;;4953407;29;20239;-54
2023/08/26 05:00:31;;;;;;;26.98;15.68;;;;;;;;;;4953384;28;20608;-48
2023/08/26 05:02:58;;;;;;;21.10;14.02;;;;;;;;;;4938793;29;20212;-49
2023/08/26 05:05:26;;;;;;;24.90;15.75;;;;;;;;;;4938578;29;20590;-49
2023/08/26 05:07:53;;;;;;;23.33;15.55;;;;;;;;;;4937398;29;20228;-49
2023/08/26 05:10:21;;;;;;;21.90;14.93;;;;;;;;;;4938694;29;20268;-50
2023/08/26 05:12:48;;;;;;;24.52;14.98;;;;;;;;;;4945560;29;20200;-49
2023/08/26 05:15:15;;;;;;;23.35;15.27;;;;;;;;;;4938516;29;20212;-52
2023/08/26 05:17:42;;;;;;;20.15;14.57;;;;;;;;;;4937564;29;20536;-50
2023/08/26 05:20:10;;;;;;;20.55;14.57;;;;;;;;;;4937411;29;20225;-51
2023/08/26 05:22:40;;;;;;;20.77;14.48;;;;;;;;;;4938176;29;20212;-49
2023/08/26 05:25:08;;;;;;;19.20;13.95;;;;;;;;;;4937119;29;20204;-49
2023/08/26 05:27:35;;;;;;;23.25;15.20;;;;;;;;;;4936856;29;20712;-49
2023/08/26 05:30:03;;;;;;;21.40;14.52;;;;;;;;;;4969114;28;20208;-53
2023/08/26 05:32:38;;;;;;;20.70;14.73;;;;;;;;;;4937253;29;20267;-54
2023/08/26 05:35:05;;;;;;;25.42;14.88;;;;;;;;;;4938125;29;20612;-49
2023/08/26 05:37:32;;;;;;;20.95;14.80;;;;;;;;;;4952888;29;20226;-50
2023/08/26 05:39:59;;;;;;;23.15;14.50;;;;;;;;;;4968684;28;20232;-48
2023/08/26 05:42:26;;;;;;;20.42;15.13;;;;;;;;;;4936981;29;20204;-48
2023/08/26 05:44:54;;;;;;;20.83;13.25;;;;;;;;;;4938927;28;20204;-54
2023/08/26 05:47:22;;;;;;;21.95;15.25;;;;;;;;;;4942985;29;20306;-48
2023/08/26 05:49:49;;;;;;;22.30;14.82;;;;;;;;;;4952514;29;20215;-52
2023/08/26 05:52:17;;;;;;;22.83;13.98;;;;;;;;;;4954346;28;20262;-50
2023/08/26 05:54:44;;;;;;;21.45;14.00;;;;;;;;;;4954371;29;20227;-54
2023/08/26 05:57:12;;;;;;;21.52;13.75;;;;;;;;;;4982751;28;20624;-50
2023/08/26 05:59:40;;;;;;;19.83;13.02;;;;;;;;;;4954238;29;20231;-50
2023/08/26 06:02:07;;;;;;;24.13;13.68;;;;;;;;;;4944788;29;20232;-49
2023/08/26 06:04:35;;;;;;;15.25;11.90;;;;;;;;;;4938553;29;20232;-48
2023/08/26 06:07:02;;;;;;;17.80;13.10;;;;;;;;;;4936023;28;20273;-52
2023/08/26 06:09:30;;;;;;;19.08;12.95;;;;;;;;;;4936232;29;20228;-47
2023/08/26 06:11:57;;;;;;;16.10;11.68;;;;;;;;;;4955542;28;20267;-52
2023/08/26 06:14:24;;;;;;;17.55;11.35;;;;;;;;;;4954088;29;20768;-50
2023/08/26 06:16:51;;;;;;;21.83;12.43;;;;;;;;;;4955534;28;20231;-52
2023/08/26 06:19:19;;;;;;;15.10;10.82;;;;;;;;;;4955353;28;20235;-50
2023/08/26 06:21:46;;;;;;;17.48;11.23;;;;;;;;;;4969519;28;20627;-48
2023/08/26 06:24:13;;;;;;;16.83;11.27;;;;;;;;;;4947142;28;20275;-49
2023/08/26 06:26:40;;;;;;;16.48;11.07;;;;;;;;;;4970406;28;20223;-55
2023/08/26 06:29:08;;;;;;;18.85;11.23;;;;;;;;;;4954064;28;20318;-49
2023/08/26 06:31:35;;;;;;;20.05;10.13;;;;;;;;;;4954296;29;20239;-53
2023/08/26 06:34:03;;;;;;;15.05;9.90;;;;;;;;;;4986388;28;20348;-51
2023/08/26 06:36:33;;;;;;;17.58;9.80;;;;;;;;;;4953562;28;20728;-48
2023/08/26 06:39:00;;;;;;;16.67;10.97;;;;;;;;;;4952975;29;20444;-50
2023/08/26 06:41:28;;;;;;;17.63;10.43;;;;;;;;;;4954087;28;20318;-48
2023/08/26 06:43:57;;;;;;;15.95;9.55;;;;;;;;;;4952739;28;20227;-52
2023/08/26 06:46:24;;;;;;;16.35;9.00;;;;;;;;;;4969663;28;20227;-49
2023/08/26 06:48:52;;;;;;;14.05;9.13;;;;;;;;;;4985951;28;20747;-54
2023/08/26 06:51:19;;;;;;;16.92;9.40;;;;;;;;;;4953233;28;20229;-51
2023/08/26 06:53:46;;;;;;;19.75;8.73;;;;;;;;;;4954850;28;20238;-48
2023/08/26 06:56:15;;;;;;;16.17;8.48;;;;;;;;;;4953319;28;20665;-49
2023/08/26 06:58:42;;;;;;;17.90;8.35;;;;;;;;;;4954435;28;20215;-49
2023/08/26 07:01:09;;;;;;;12.85;8.05;;;;;;;;;;4954647;28;20227;-49
2023/08/26 07:03:36;;;;;;;13.43;8.95;;;;;;;;;;4954818;28;20791;-52
2023/08/26 07:06:04;;;;;;;13.85;7.95;;;;;;;;;;4954309;28;20318;-51
2023/08/26 07:08:31;;;;;;;11.15;8.38;;;;;;;;;;4955394;28;20283;-51
2023/08/26 07:10:58;;;;;;;11.63;7.88;;;;;;;;;;4950161;28;20231;-56
2023/08/26 07:13:25;;;;;;;12.88;7.88;;;;;;;;;;4944695;28;20228;-51
2023/08/26 07:15:52;;;;;;;20.80;9.18;;;;;;;;;;4935667;28;20263;-58
2023/08/26 07:18:20;;;;;;;13.18;8.50;;;;;;;;;;4954097;29;20232;-49
2023/08/26 07:20:47;;;;;;;13.48;7.55;;;;;;;;;;4954043;28;20242;-50
2023/08/26 07:23:15;;;;;;;25.05;9.90;;;;;;;;;;4953656;28;20227;-52
2023/08/26 07:25:41;;;;;;;13.27;7.15;;;;;;;;;;4952914;28;20730;-51
2023/08/26 07:28:09;;;;;;;10.52;7.22;;;;;;;;;;4954219;28;20242;-53
2023/08/26 07:30:37;;;;;;;11.05;7.00;;;;;;;;;;4954450;29;20231;-48
2023/08/26 07:33:05;;;;;;;9.98;6.45;;;;;;;;;;4949954;28;20691;-57
2023/08/26 07:35:32;;;;;;;13.75;7.18;;;;;;;;;;4938087;28;20215;-58
2023/08/26 07:37:59;;;;;;;13.48;7.60;;;;;;;;;;4934775;28;20201;-60
2023/08/26 07:40:27;;;;;;;7.72;6.10;;;;;;;;;;4958183;28;20222;-60
2023/08/26 07:42:55;;;;;;;8.88;6.60;;;;;;;;;;4953762;28;20208;-58
2023/08/26 07:45:22;;;;;;;9.25;6.18;;;;;;;;;;4938580;28;20231;-58
2023/08/26 07:47:49;;;;;;;10.15;5.55;;;;;;;;;;4951441;28;20716;-59
2023/08/26 07:50:19;;;;;;;9.20;5.18;;;;;;;;;;4952098;28;20568;-59
2023/08/26 07:52:47;;;;;;;10.38;5.38;;;;;;;;;;4958489;28;20231;-58
2023/08/26 07:55:14;;;;;;;7.60;5.20;;;;;;;;;;4967451;28;20227;-58
2023/08/26 07:57:41;;;;;;;14.85;4.90;;;;;;;;;;4945209;28;20234;-57
2023/08/26 08:00:09;;;;;;;7.85;4.43;;;;;;;;;;4949155;28;20231;-59
2023/08/26 08:02:41;;;;;;;9.40;4.50;;;;;;;;;;4946632;28;21322;-59
2023/08/26 08:05:08;;;;;;;8.10;4.70;;;;;;;;;;4952263;28;20274;-50
2023/08/26 08:07:36;;;;;;;8.77;4.72;;;;;;;;;;4951270;28;20234;-57
2023/08/26 08:10:03;;;;;;;6.30;4.10;;;;;;;;;;4949452;28;20316;-55
2023/08/26 08:12:30;;;;;;;6.93;4.32;;;;;;;;;;4949644;28;20223;-55
2023/08/26 08:14:57;;;;;;;10.35;4.70;;;;;;;;;;4940234;28;20230;-55
2023/08/26 08:17:24;;;;;;;7.78;4.45;;;;;;;;;;4943861;28;20228;-58
2023/08/26 08:19:51;;;;;;;8.57;4.40;;;;;;;;;;4947293;28;20232;-59
2023/08/26 08:22:33;;;;;;;7.30;4.15;;;;;;;;;;4951810;28;20224;-58
2023/08/26 08:25:01;;;;;;;7.18;3.83;;;;;;;;;;4940814;28;20556;-57
2023/08/26 08:27:30;;;;;;;8.40;4.75;;;;;;;;;;4944196;28;20208;-58
2023/08/26 08:29:58;;;;;;;6.32;4.35;;;;;;;;;;4939614;28;20279;-53
2023/08/26 08:32:25;;;;;;;5.30;4.20;;;;;;;;;;4952661;28;20204;-53
2023/08/26 08:34:53;;;;;;;8.88;4.15;;;;;;;;;;4938990;28;20200;-57
2023/08/26 08:37:20;;;;;;;8.93;4.35;;;;;;;;;;4957709;28;20211;-54
2023/08/26 08:39:48;;;;;;;5.78;4.03;;;;;;;;;;4942092;28;20240;-55
2023/08/26 08:42:16;;;;;;;7.78;4.30;;;;;;;;;;4954685;28;20556;-53
2023/08/26 08:44:47;;;;;;;12.30;3.90;;;;;;;;;;4938745;28;20201;-57
2023/08/26 08:47:15;;;;;;;9.48;4.57;;;;;;;;;;4944700;28;20255;-61
2023/08/26 08:49:45;;;;;;;7.47;3.92;;;;;;;;;;4938053;28;20692;-62
2023/08/26 08:52:13;;;;;;;5.85;3.90;;;;;;;;;;4938308;28;20680;-63
2023/08/26 08:54:40;;;;;;;6.00;3.75;;;;;;;;;;4938592;28;20208;-63
2023/08/26 08:57:09;;;;;;;6.05;4.10;;;;;;;;;;4946439;28;20208;-62
2023/08/26 08:59:36;;;;;;;8.30;4.38;;;;;;;;;;4937606;28;20223;-63
2023/08/26 09:02:04;;;;;;;7.40;3.75;;;;;;;;;;4952220;28;20574;-62
2023/08/26 09:04:32;;;;;;;7.18;4.10;;;;;;;;;;4938385;28;20204;-63
2023/08/26 09:07:00;;;;;;;6.70;4.22;;;;;;;;;;4945294;28;20739;-63
2023/08/26 09:09:27;;;;;;;5.45;4.13;;;;;;;;;;4938176;28;20252;-62
2023/08/26 09:12:06;;;;;;;8.63;4.00;;;;;;;;;;4937804;28;20204;-62
2023/08/26 09:14:33;;;;;;;6.22;3.80;;;;;;;;;;4937842;28;20208;-62
2023/08/26 09:17:17;;;;;;;9.10;4.20;;;;;;;;;;4945614;28;20212;-62
2023/08/26 09:19:55;;;;;;;6.05;4.15;;;;;;;;;;4937619;28;20670;-62
2023/08/26 09:22:27;;;;;;;7.88;4.07;;;;;;;;;;4953779;28;20203;-62
2023/08/26 09:25:02;;;;;;;5.25;3.95;;;;;;;;;;4936703;28;20219;-62
2023/08/26 09:27:33;;;;;;;7.45;3.75;;;;;;;;;;4945237;28;20203;-62
2023/08/26 09:30:01;;;;;;;5.82;3.28;;;;;;;;;;4937570;28;20224;-63
2023/08/26 09:32:31;;;;;;;7.97;3.80;;;;;;;;;;4953188;28;20258;-63
2023/08/26 09:35:09;;;;;;;5.47;4.00;;;;;;;;;;4942206;28;20294;-63
2023/08/26 09:37:37;;;;;;;7.10;4.10;;;;;;;;;;4945528;28;20219;-62
2023/08/26 09:40:05;;;;;;;6.82;4.10;;;;;;;;;;4937782;28;20236;-62
2023/08/26 09:42:34;;;;;;;5.88;3.95;;;;;;;;;;4953084;28;20214;-62
2023/08/26 09:45:01;;;;;;;6.47;3.80;;;;;;;;;;4937681;28;20207;-62
2023/08/26 09:47:31;;;;;;;5.75;3.38;;;;;;;;;;4943325;28;20200;-61
2023/08/26 09:49:58;;;;;;;7.53;4.13;;;;;;;;;;4937156;28;20773;-62
2023/08/26 09:52:25;;;;;;;5.15;3.47;;;;;;;;;;4952989;28;20212;-62
2023/08/26 09:54:53;;;;;;;14.18;4.25;;;;;;;;;;4937185;28;20251;-63
2023/08/26 09:57:21;;;;;;;5.22;3.67;;;;;;;;;;4944011;28;20219;-63
2023/08/26 09:59:48;;;;;;;7.03;4.03;;;;;;;;;;4946201;28;20212;-62
2023/08/26 10:02:24;;;;;;;4.35;3.58;;;;;;;;;;4955982;28;20211;-62
2023/08/26 10:04:55;;;;;;;7.28;3.22;;;;;;;;;;4938440;28;20258;-61
2023/08/26 10:07:23;;;;;;;6.53;3.10;;;;;;;;;;4953678;28;20251;-61
2023/08/26 10:09:53;;;;;;;5.13;3.00;;;;;;;;;;4945140;28;20232;-61
2023/08/26 10:12:31;;;;;;;4.93;2.33;;;;;;;;;;4950023;28;20207;-61
2023/08/26 10:15:01;;;;;;;8.70;3.60;;;;;;;;;;4951952;29;20188;-58
2023/08/26 10:17:30;;;;;;;5.97;2.95;;;;;;;;;;4947935;28;20238;-59
2023/08/26 10:19:57;;;;;;;9.05;4.00;;;;;;;;;;4955766;28;20231;-58
2023/08/26 10:22:25;;;;;;;9.25;3.45;;;;;;;;;;4954241;28;20255;-59
2023/08/26 10:24:53;;;;;;;4.45;3.58;;;;;;;;;;4956049;28;20608;-59
2023/08/26 10:27:20;;;;;;;7.05;3.35;;;;;;;;;;4956086;28;20215;-58
2023/08/26 10:29:47;;;;;;;5.90;3.30;;;;;;;;;;4956059;28;20312;-59
2023/08/26 10:32:17;;;;;;;7.90;3.22;;;;;;;;;;4956032;28;20203;-59
2023/08/26 10:34:57;;;;;;;7.03;3.17;;;;;;;;;;4954202;28;20207;-59
2023/08/26 10:37:43;;;;;;;9.65;3.15;;;;;;;;;;4954386;28;20676;-59
2023/08/26 10:40:13;;;;;;;4.00;2.80;;;;;;;;;;4955834;28;20286;-59
2023/08/26 10:43:06;;;;;;;4.53;2.63;;;;;;;;;;4955915;28;20207;-59
2023/08/26 10:45:33;;;;;;;6.43;2.67;;;;;;;;;;4955758;28;20291;-59
2023/08/26 10:48:00;;;;;;;4.57;2.55;;;;;;;;;;4955631;28;20207;-60
2023/08/26 10:50:28;;;;;;;3.35;2.35;;;;;;;;;;4955918;28;20274;-59
2023/08/26 10:52:58;;;;;;;5.80;2.78;;;;;;;;;;4955866;28;20219;-59
2023/08/26 10:55:26;;;;;;;4.47;2.40;;;;;;;;;;4948251;28;20200;-60
2023/08/26 10:58:16;;;;;;;4.82;2.13;;;;;;;;;;4935498;28;20208;-60
2023/08/26 11:00:51;;;;;;;6.20;2.55;;;;;;;;;;4936238;28;20214;-60
2023/08/26 11:03:20;;;;;;;4.40;2.30;;;;;;;;;;4944354;28;20200;-60
2023/08/26 11:06:00;;;;;;;6.18;2.50;;;;;;;;;;4946501;28;20560;-60
2023/08/26 11:08:27;;;;;;;4.40;2.35;;;;;;;;;;4939319;28;20208;-59
2023/08/26 11:10:54;;;;;;;4.38;2.53;;;;;;;;;;4954181;28;20223;-59
2023/08/26 11:13:22;;;;;;;4.88;2.58;;;;;;;;;;4947297;28;20205;-59
2023/08/26 11:15:50;;;;;;;7.85;3.08;;;;;;;;;;4946475;28;20278;-59
2023/08/26 11:18:20;;;;;;;5.88;2.92;;;;;;;;;;4940020;28;20671;-59
2023/08/26 11:20:49;;;;;;;4.20;2.58;;;;;;;;;;4945952;28;20564;-59
2023/08/26 11:23:17;;;;;;;4.97;2.90;;;;;;;;;;4948910;28;20207;-60
2023/08/26 11:25:43;;;;;;;8.55;2.50;;;;;;;;;;4945137;28;20211;-61
2023/08/26 11:28:11;;;;;;;4.20;2.33;;;;;;;;;;4940871;28;20721;-60
2023/08/26 11:30:43;;;;;;;5.53;2.45;;;;;;;;;;4943331;28;20271;-61
2023/08/26 11:33:15;;;;;;;4.78;2.30;;;;;;;;;;4935338;28;20207;-59
2023/08/26 11:35:44;;;;;;;4.50;2.22;;;;;;;;;;4943928;28;20325;-59
2023/08/26 11:38:34;;;;;;;11.80;3.35;;;;;;;;;;4939666;28;20627;-59
2023/08/26 11:41:06;;;;;;;12.70;3.53;;;;;;;;;;4936219;29;20246;-58
2023/08/26 11:43:36;;;;;;;3.80;2.33;;;;;;;;;;4936362;29;20219;-58
2023/08/26 11:46:05;;;;;;;2.50;2.17;;;;;;;;;;4936124;29;20208;-58
2023/08/26 11:48:36;;;;;;;8.07;2.53;;;;;;;;;;4936100;29;20205;-59
2023/08/26 11:51:03;;;;;;;8.27;2.80;;;;;;;;;;4936065;29;20220;-57
2023/08/26 11:53:31;;;;;;;9.27;2.20;;;;;;;;;;4935980;29;20556;-58
2023/08/26 11:55:58;;;;;;;25.48;3.58;;;;;;;;;;4936164;29;20208;-58
2023/08/26 11:58:26;;;;;;;42.13;3.90;;;;;;;;;;4935431;28;20213;-60
2023/08/26 12:00:55;;;;;;;7.95;2.50;;;;;;;;;;4954125;28;20234;-58
2023/08/26 12:03:23;;;;;;;12.35;2.88;;;;;;;;;;4954701;28;20292;-58
2023/08/26 12:05:54;;;;;;;57.38;4.60;;;;;;;;;;4954372;28;20227;-57
2023/08/26 12:08:22;;;;;;;20.45;4.22;;;;;;;;;;4941792;29;20234;-59
2023/08/26 12:10:50;;;;;;;25.15;8.90;;;;;;;;;;4953946;28;20235;-60
2023/08/26 12:13:17;;;;;;;26.05;4.57;;;;;;;;;;4954789;28;20227;-60
2023/08/26 12:15:45;;;;;;;15.48;2.55;;;;;;;;;;4954101;28;20283;-60
2023/08/26 12:18:13;;;;;;;5.65;2.85;;;;;;;;;;4954166;28;20248;-59
2023/08/26 12:20:46;;;;;;;18.20;3.00;;;;;;;;;;4954250;28;20583;-59
2023/08/26 12:23:16;;;;;;;26.15;3.53;;;;;;;;;;4953327;29;20281;-58
2023/08/26 12:25:45;;;;;;;4.82;2.60;;;;;;;;;;4954178;28;20247;-59
2023/08/26 12:28:24;;;;;;;6.25;2.10;;;;;;;;;;4954315;28;20686;-59
2023/08/26 12:30:51;;;;;;;15.23;2.33;;;;;;;;;;4954915;29;20231;-60
2023/08/26 12:33:19;;;;;;;31.17;3.65;;;;;;;;;;4953415;28;20732;-60
2023/08/26 12:35:53;;;;;;;6.43;2.17;;;;;;;;;;4953100;28;20231;-60
2023/08/26 12:38:22;;;;;;;36.08;3.20;;;;;;;;;;4954121;28;20211;-60
2023/08/26 12:40:50;;;;;;;4.55;1.77;;;;;;;;;;4954854;28;20321;-59
2023/08/26 12:43:20;;;;;;;5.00;2.17;;;;;;;;;;4958059;28;20578;-59
2023/08/26 12:45:48;;;;;;;6.03;1.73;;;;;;;;;;4958159;28;20657;-60
2023/08/26 12:48:17;;;;;;;4.95;2.33;;;;;;;;;;4957137;29;20262;-60
2023/08/26 12:51:08;;;;;;;3.72;1.90;;;;;;;;;;4958308;28;20227;-60
2023/08/26 12:53:37;;;;;;;3.15;2.05;;;;;;;;;;4958026;28;20222;-60
2023/08/26 12:56:04;;;;;;;7.32;2.08;;;;;;;;;;4958170;28;20231;-60
2023/08/26 12:58:31;;;;;;;4.38;1.88;;;;;;;;;;4956683;29;20207;-59
2023/08/26 13:00:58;;;;;;;5.63;1.98;;;;;;;;;;4957833;28;20222;-60
2023/08/26 13:03:26;;;;;;;21.23;2.45;;;;;;;;;;4957865;28;20577;-60
2023/08/26 13:05:55;;;;;;;2.92;1.77;;;;;;;;;;4957953;28;20207;-59
2023/08/26 13:08:22;;;;;;;3.22;1.88;;;;;;;;;;4958104;28;20207;-60
2023/08/26 13:10:50;;;;;;;30.98;2.72;;;;;;;;;;4957468;28;20708;-60
2023/08/26 13:13:18;;;;;;;6.85;2.28;;;;;;;;;;4957820;29;20219;-60
2023/08/26 13:15:45;;;;;;;4.75;1.83;;;;;;;;;;4957583;28;20669;-60
2023/08/26 13:18:13;;;;;;;37.78;3.17;;;;;;;;;;4957613;29;20231;-60
2023/08/26 13:20:40;;;;;;;10.73;2.30;;;;;;;;;;4957480;28;20207;-60
2023/08/26 13:23:09;;;;;;;7.05;1.70;;;;;;;;;;4958111;28;20241;-60
2023/08/26 13:25:37;;;;;;;51.83;4.68;;;;;;;;;;4957644;28;20203;-60
2023/08/26 13:28:06;;;;;;;36.70;3.05;;;;;;;;;;4957405;28;20536;-60
2023/08/26 13:30:33;;;;;;;6.43;1.80;;;;;;;;;;4957090;28;20692;-60
2023/08/26 13:33:02;;;;;;;7.35;2.05;;;;;;;;;;4957388;28;20217;-60
2023/08/26 13:35:29;;;;;;;7.47;1.90;;;;;;;;;;4957161;28;20298;-61
2023/08/26 13:37:57;;;;;;;2.88;1.75;;;;;;;;;;4957209;28;20210;-60
2023/08/26 13:40:24;;;;;;;3.28;2.00;;;;;;;;;;4955832;28;20243;-60
2023/08/26 13:42:54;;;;;;;5.97;2.03;;;;;;;;;;4957219;28;20578;-60
2023/08/26 13:45:21;;;;;;;2.70;1.83;;;;;;;;;;4957295;28;20207;-59
2023/08/26 13:47:49;;;;;;;2.78;1.50;;;;;;;;;;4956929;28;20225;-60
2023/08/26 13:50:17;;;;;;;5.65;2.17;;;;;;;;;;4956644;29;20711;-60
2023/08/26 13:52:44;;;;;;;33.65;2.47;;;;;;;;;;4956701;28;20211;-60
2023/08/26 13:55:14;;;;;;;7.20;2.15;;;;;;;;;;4957272;28;20305;-60
2023/08/26 13:57:41;;;;;;;4.28;1.60;;;;;;;;;;4956842;28;20688;-60
2023/08/26 14:00:09;;;;;;;20.00;2.22;;;;;;;;;;4956682;28;20211;-60
2023/08/26 14:02:38;;;;;;;5.88;1.85;;;;;;;;;;4957111;28;20207;-61
2023/08/26 14:05:07;;;;;;;13.90;2.35;;;;;;;;;;4956887;28;20297;-61
2023/08/26 14:07:34;;;;;;;4.95;1.90;;;;;;;;;;4956797;28;20211;-60
2023/08/26 14:10:02;;;;;;;5.50;1.70;;;;;;;;;;4956541;28;20239;-60
2023/08/26 14:12:29;;;;;;;2.58;1.98;;;;;;;;;;4956588;28;20199;-60
2023/08/26 14:14:56;;;;;;;11.00;2.22;;;;;;;;;;4956477;28;20281;-60
2023/08/26 14:17:23;;;;;;;3.05;1.95;;;;;;;;;;4956682;28;20214;-60
2023/08/26 14:19:51;;;;;;;3.80;1.90;;;;;;;;;;4956392;28;20291;-61
2023/08/26 14:22:18;;;;;;;4.40;1.90;;;;;;;;;;4956471;28;20231;-60
2023/08/26 14:24:48;;;;;;;4.88;1.83;;;;;;;;;;4956398;28;20216;-60
2023/08/26 14:27:16;;;;;;;5.63;1.50;;;;;;;;;;4956193;28;20676;-61
2023/08/26 14:29:43;;;;;;;3.28;1.88;;;;;;;;;;4956401;28;20203;-60
2023/08/26 14:32:10;;;;;;;2.75;2.10;;;;;;;;;;4956390;29;20203;-60
2023/08/26 14:34:37;;;;;;;3.42;1.95;;;;;;;;;;4956063;28;20207;-60
2023/08/26 14:37:04;;;;;;;4.05;1.73;;;;;;;;;;4956159;28;20223;-61